Time;durP1;ratioP1;P1;durP2;ratioP2;P2;SDS_P1;SDS_P2;PMS_P1;PMS_P2;Temp;Humidity;BMP_temperature;BMP_pressure;BME280_temperature;BME280_humidity;BME280_pressure;Samples;Min_cycle;Max_cycle;Signal;HPM_P1;HPM_P2
2021/01/11 00:00:18;;;;;;;52.88;31.75;;;;;;;2.89;74.63;101981.41;5054158;28;20048;-63
2021/01/11 00:02:45;;;;;;;55.05;31.95;;;;;;;3.00;73.89;101977.88;5057916;28;20059;-62
2021/01/11 00:05:13;;;;;;;55.10;32.92;;;;;;;3.04;73.05;101973.66;5083534;28;20045;-62
2021/01/11 00:07:41;;;;;;;53.17;33.13;;;;;;;2.79;74.30;101974.88;5057487;28;20045;-63
2021/01/11 00:10:09;;;;;;;57.72;33.58;;;;;;;2.55;75.47;101970.38;5053214;28;20041;-62
2021/01/11 00:12:40;;;;;;;54.00;33.28;;;;;;;2.72;75.22;101982.31;5054001;28;20057;-62
2021/01/11 00:15:11;;;;;;;58.00;33.78;;;;;;;2.75;74.80;101979.97;5054553;28;20041;-64
2021/01/11 00:17:39;;;;;;;51.13;32.67;;;;;;;2.75;74.65;101981.84;5054195;28;20485;-65
2021/01/11 00:20:07;;;;;;;55.75;31.83;;;;;;;2.82;74.76;101983.41;5051369;28;20053;-61
2021/01/11 00:22:35;;;;;;;57.72;33.25;;;;;;;2.95;73.88;101985.09;5052534;28;20053;-62
2021/01/11 00:25:04;;;;;;;52.88;32.08;;;;;;;2.85;74.00;101982.09;5053039;28;20064;-63
2021/01/11 00:27:31;;;;;;;53.50;31.83;;;;;;;2.80;74.45;101981.97;5054768;28;20488;-63
2021/01/11 00:29:58;;;;;;;52.63;32.60;;;;;;;3.13;73.57;101985.84;5061378;28;20049;-63
2021/01/11 00:32:24;;;;;;;51.13;32.17;;;;;;;2.95;73.58;101990.53;5052772;28;20527;-62
2021/01/11 00:34:51;;;;;;;53.25;32.47;;;;;;;2.93;73.85;101988.03;5052457;28;20049;-62
2021/01/11 00:37:18;;;;;;;55.72;32.55;;;;;;;3.01;74.02;101986.88;5053402;28;20487;-62
2021/01/11 00:39:45;;;;;;;54.65;32.63;;;;;;;2.92;74.07;101977.38;5064131;28;20053;-65
2021/01/11 00:42:12;;;;;;;50.45;31.98;;;;;;;3.21;73.08;101973.78;5069393;28;20063;-62
2021/01/11 00:44:39;;;;;;;53.00;31.95;;;;;;;3.47;72.42;101969.81;5072021;28;20195;-61
2021/01/11 00:47:06;;;;;;;48.22;30.27;;;;;;;3.41;71.67;101966.97;5059315;28;20052;-65
2021/01/11 00:49:33;;;;;;;54.13;32.67;;;;;;;3.43;71.63;101966.72;5051776;28;20503;-62
2021/01/11 00:52:02;;;;;;;53.40;32.05;;;;;;;3.26;71.73;101966.56;5052848;28;20057;-65
2021/01/11 00:54:30;;;;;;;48.10;32.20;;;;;;;3.12;72.48;101964.31;5051555;28;20056;-63
2021/01/11 00:57:01;;;;;;;56.63;32.53;;;;;;;2.95;72.89;101968.75;5051363;28;20628;-65
2021/01/11 00:59:46;;;;;;;54.58;32.28;;;;;;;3.16;72.67;101962.75;5053236;28;20053;-64
2021/01/11 01:02:17;;;;;;;51.38;30.92;;;;;;;3.19;72.13;101970.50;5059922;28;20415;-62
2021/01/11 01:04:43;;;;;;;52.70;32.33;;;;;;;3.12;72.64;101962.41;5063587;28;20049;-63
2021/01/11 01:07:10;;;;;;;55.20;32.38;;;;;;;2.82;73.58;101969.81;5053913;27;20049;-62
2021/01/11 01:09:37;;;;;;;54.90;34.25;;;;;;;2.51;75.29;101961.84;5063823;28;20056;-63
2021/01/11 01:12:05;;;;;;;57.72;34.55;;;;;;;2.49;75.64;101964.00;5059609;28;20060;-63
2021/01/11 01:14:31;;;;;;;58.65;34.35;;;;;;;2.55;76.01;101956.78;5072625;28;20374;-62
2021/01/11 01:16:59;;;;;;;54.28;33.10;;;;;;;2.85;74.75;101958.44;5072263;28;20044;-62
2021/01/11 01:19:26;;;;;;;54.08;33.95;;;;;;;2.58;74.92;101964.50;5072973;28;20063;-63
2021/01/11 01:21:53;;;;;;;56.08;34.20;;;;;;;2.48;75.43;101962.31;5071173;28;20408;-64
2021/01/11 01:24:20;;;;;;;53.90;33.45;;;;;;;2.25;76.44;101964.91;5072320;28;20514;-63
2021/01/11 01:26:46;;;;;;;52.40;33.50;;;;;;;2.22;76.42;101963.50;5072428;28;20071;-63
2021/01/11 01:29:13;;;;;;;52.08;33.47;;;;;;;2.34;76.22;101960.03;5069244;28;20053;-64
2021/01/11 01:31:40;;;;;;;52.75;33.25;;;;;;;2.30;76.56;101967.81;5059856;28;20048;-63
2021/01/11 01:34:07;;;;;;;51.42;32.40;;;;;;;2.55;76.25;101967.66;5066117;28;20377;-64
2021/01/11 01:36:34;;;;;;;48.72;32.33;;;;;;;2.58;75.62;101972.66;5053439;28;20064;-64
2021/01/11 01:39:01;;;;;;;53.30;32.90;;;;;;;2.60;75.28;101967.84;5052639;28;20404;-63
2021/01/11 01:41:28;;;;;;;51.60;32.58;;;;;;;2.78;74.83;101974.03;5053248;28;20492;-63
2021/01/11 01:43:55;;;;;;;51.83;33.00;;;;;;;2.68;74.42;101970.22;5052186;28;20045;-63
2021/01/11 01:46:22;;;;;;;57.95;33.35;;;;;;;2.59;74.67;101972.44;5052581;28;20509;-63
2021/01/11 01:48:49;;;;;;;59.78;34.22;;;;;;;2.29;76.16;101980.56;5051034;28;20076;-63
2021/01/11 01:51:16;;;;;;;61.20;35.33;;;;;;;2.39;76.04;101981.91;5058176;28;20369;-64
2021/01/11 01:53:44;;;;;;;54.90;34.95;;;;;;;2.25;76.02;101982.06;5072181;28;20059;-63
2021/01/11 01:56:12;;;;;;;55.40;34.05;;;;;;;2.37;75.91;101984.88;5071483;28;20518;-63
2021/01/11 01:58:39;;;;;;;57.13;32.90;;;;;;;2.41;76.04;101980.63;5057654;28;20064;-62
2021/01/11 02:01:06;;;;;;;54.80;34.22;;;;;;;2.47;75.51;101989.75;5051731;28;20063;-63
2021/01/11 02:03:33;;;;;;;57.72;35.05;;;;;;;2.34;76.07;101993.47;5052519;28;20056;-63
2021/01/11 02:06:00;;;;;;;81.57;47.97;;;;;;;2.48;75.38;101992.22;5050389;28;20061;-63
2021/01/11 02:08:30;;;;;;;69.13;39.63;;;;;;;2.54;75.04;101987.78;5052554;28;20049;-63
2021/01/11 02:11:24;;;;;;;63.78;39.05;;;;;;;2.69;74.58;101991.75;5051706;28;20052;-64
2021/01/11 02:13:59;;;;;;;56.70;35.10;;;;;;;2.34;75.53;101996.19;5050575;28;20424;-63
2021/01/11 02:16:58;;;;;;;55.50;34.65;;;;;;;2.45;75.19;101995.44;5052520;28;20049;-64
2021/01/11 02:20:03;;;;;;;54.57;33.57;;;;;;;2.31;76.17;101985.78;5050159;28;20049;-64
2021/01/11 02:22:49;;;;;;;52.88;33.15;;;;;;;2.56;75.58;101991.94;5068101;28;20064;-63
2021/01/11 02:25:22;;;;;;;56.28;34.25;;;;;;;2.70;74.68;101976.25;5070205;28;20052;-63
2021/01/11 02:27:55;;;;;;;50.58;33.72;;;;;;;2.96;74.08;101981.31;5072023;28;20049;-63
2021/01/11 02:30:29;;;;;;;52.97;33.58;;;;;;;2.81;74.13;101986.34;5071917;28;20049;-63
2021/01/11 02:32:57;;;;;;;54.83;33.72;;;;;;;2.81;74.55;101983.63;5036859;28;20167;-63
2021/01/11 02:35:26;;;;;;;53.78;33.60;;;;;;;2.80;74.26;101987.41;5049879;28;20045;-63
2021/01/11 02:37:53;;;;;;;55.28;34.95;;;;;;;2.68;74.70;101984.66;5051798;28;20056;-64
2021/01/11 02:40:20;;;;;;;51.20;32.03;;;;;;;2.88;74.36;101987.06;5052487;28;20404;-63
2021/01/11 02:42:47;;;;;;;55.38;33.20;;;;;;;2.99;73.59;101995.28;5070898;28;20052;-62
2021/01/11 02:45:13;;;;;;;52.58;33.92;;;;;;;2.81;74.25;101989.06;5073854;28;20407;-62
2021/01/11 02:47:43;;;;;;;54.55;33.90;;;;;;;2.82;74.50;101988.00;5073216;28;20052;-62
2021/01/11 02:50:11;;;;;;;53.80;33.85;;;;;;;2.86;73.94;101986.50;5071531;28;20041;-62
2021/01/11 02:52:56;;;;;;;52.60;32.53;;;;;;;2.90;74.19;101987.66;5053806;28;20163;-61
2021/01/11 02:55:40;;;;;;;50.53;32.88;;;;;;;2.96;73.98;101990.31;5055952;28;20056;-63
2021/01/11 02:58:40;;;;;;;60.08;34.30;;;;;;;3.07;73.82;101994.09;5054959;28;20060;-62
2021/01/11 03:01:09;;;;;;;55.17;32.88;;;;;;;3.09;73.49;101987.38;5054442;28;20049;-63
2021/01/11 03:03:38;;;;;;;55.85;33.15;;;;;;;2.95;74.09;101985.91;5055552;28;20053;-63
2021/01/11 03:06:11;;;;;;;53.83;33.83;;;;;;;2.87;74.65;101993.59;5054780;28;20048;-62
2021/01/11 03:08:38;;;;;;;54.38;33.30;;;;;;;3.14;74.27;102003.84;5054684;28;20052;-63
2021/01/11 03:11:05;;;;;;;49.83;32.22;;;;;;;3.18;74.31;101991.44;5053910;28;20052;-61
2021/01/11 03:13:32;;;;;;;55.47;34.30;;;;;;;3.02;74.38;101996.69;5054877;28;20048;-62
2021/01/11 03:15:59;;;;;;;48.08;32.83;;;;;;;2.87;75.11;101999.88;5054184;28;20045;-61
2021/01/11 03:18:26;;;;;;;49.47;33.25;;;;;;;2.97;75.12;101994.69;5054779;28;20056;-61
2021/01/11 03:20:53;;;;;;;53.58;32.97;;;;;;;3.20;74.55;101996.63;5061388;28;20045;-63
2021/01/11 03:23:19;;;;;;;50.45;32.60;;;;;;;2.96;75.23;101995.75;5074561;28;20059;-62
2021/01/11 03:25:46;;;;;;;54.00;33.85;;;;;;;2.96;75.52;101997.63;5074446;28;20064;-62
2021/01/11 03:28:13;;;;;;;50.00;32.00;;;;;;;3.06;75.07;101993.28;5071204;28;20049;-63
2021/01/11 03:30:40;;;;;;;51.25;34.08;;;;;;;3.18;74.87;101999.59;5054191;28;20056;-64
2021/01/11 03:33:07;;;;;;;49.40;32.35;;;;;;;3.10;74.80;101990.94;5054794;28;20415;-64
2021/01/11 03:35:34;;;;;;;49.88;31.75;;;;;;;3.00;75.38;101975.16;5052954;28;20082;-63
2021/01/11 03:38:00;;;;;;;50.13;32.88;;;;;;;3.38;74.27;101978.31;5054561;28;20377;-63
2021/01/11 03:40:27;;;;;;;48.80;32.05;;;;;;;3.47;74.11;101978.78;5054156;28;20056;-63
2021/01/11 03:42:54;;;;;;;49.08;31.95;;;;;;;3.42;73.48;101971.34;5054958;28;20056;-63
2021/01/11 03:45:21;;;;;;;51.22;33.03;;;;;;;3.31;73.94;101971.34;5055243;28;20057;-62
2021/01/11 03:47:48;;;;;;;53.78;32.67;;;;;;;3.38;74.19;101969.31;5062856;28;20055;-63
2021/01/11 03:50:14;;;;;;;48.50;32.25;;;;;;;3.32;74.25;101962.09;5074096;28;20052;-63
2021/01/11 03:52:41;;;;;;;49.60;31.45;;;;;;;3.43;74.33;101972.16;5074199;28;20052;-64
2021/01/11 03:55:08;;;;;;;50.63;32.55;;;;;;;3.23;74.90;101964.31;5073874;28;20049;-62
2021/01/11 03:57:35;;;;;;;47.42;32.92;;;;;;;3.11;75.24;101962.66;5066738;28;20384;-62
2021/01/11 04:00:05;;;;;;;49.15;31.48;;;;;;;3.41;74.83;101972.41;5053053;28;20079;-62
2021/01/11 04:02:34;;;;;;;50.45;30.90;;;;;;;3.40;74.84;101975.34;5054502;28;20049;-63
2021/01/11 04:05:01;;;;;;;48.25;31.05;;;;;;;3.59;74.12;101971.47;5053624;28;20052;-62
2021/01/11 04:07:28;;;;;;;48.25;30.70;;;;;;;3.64;73.83;101971.59;5053239;28;20041;-61
2021/01/11 04:09:55;;;;;;;46.95;31.27;;;;;;;3.59;73.60;101974.19;5054213;28;20103;-64
2021/01/11 04:12:22;;;;;;;47.28;30.83;;;;;;;3.73;73.92;101972.06;5054222;28;20053;-63
2021/01/11 04:14:49;;;;;;;44.90;29.85;;;;;;;3.81;73.22;101967.06;5053779;28;20056;-63
2021/01/11 04:17:16;;;;;;;44.92;30.08;;;;;;;3.73;73.39;101972.06;5056997;28;20041;-63
2021/01/11 04:19:43;;;;;;;45.25;29.90;;;;;;;3.91;72.69;101974.63;5065715;28;20053;-62
2021/01/11 04:22:10;;;;;;;49.40;29.27;;;;;;;3.82;72.48;101966.00;5053378;28;20060;-62
2021/01/11 04:24:37;;;;;;;43.25;30.00;;;;;;;3.72;73.15;101965.75;5053603;28;20520;-62
2021/01/11 04:27:07;;;;;;;46.97;29.88;;;;;;;3.54;73.43;101957.72;5052088;28;20051;-63
2021/01/11 04:29:34;;;;;;;;;;;;;;;3.81;72.64;101953.44;5052673;28;20045;-63
2021/01/11 04:32:00;;;;;;;48.15;28.40;;;;;;;3.87;72.34;101947.03;5053804;28;19921;-62
2021/01/11 04:34:28;;;;;;;44.17;28.13;;;;;;;3.91;72.38;101936.47;5051410;28;20579;-62
2021/01/11 04:36:54;;;;;;;42.45;28.60;;;;;;;3.70;72.90;101946.09;5052748;28;20056;-62
2021/01/11 04:39:21;;;;;;;44.08;28.35;;;;;;;3.58;73.33;101939.00;5060744;28;20056;-61
2021/01/11 04:41:48;;;;;;;45.05;27.85;;;;;;;3.74;72.90;101941.84;5073586;28;20063;-62
2021/01/11 04:44:20;;;;;;;42.20;28.33;;;;;;;3.79;72.60;101938.38;5071983;28;20055;-62
2021/01/11 04:46:49;;;;;;;41.03;27.75;;;;;;;3.92;72.37;101936.25;5059605;28;20067;-63
2021/01/11 04:49:34;;;;;;;42.42;26.95;;;;;;;3.98;72.12;101935.28;5068551;28;20049;-63
2021/01/11 04:52:01;;;;;;;41.03;28.17;;;;;;;3.63;73.23;101933.69;5052965;28;20068;-64
2021/01/11 04:54:30;;;;;;;41.95;27.83;;;;;;;3.75;72.86;101934.50;5064685;28;20052;-63
2021/01/11 04:57:00;;;;;;;42.45;27.92;;;;;;;3.72;73.08;101943.13;5054043;28;20048;-62
2021/01/11 04:59:27;;;;;;;47.40;27.73;;;;;;;3.88;72.49;101942.41;5052633;28;20056;-62
2021/01/11 05:01:55;;;;;;;41.55;27.25;;;;;;;3.88;72.76;101945.97;5052620;28;20124;-62
2021/01/11 05:04:22;;;;;;;43.13;27.50;;;;;;;3.57;73.44;101934.63;5052995;28;20049;-63
2021/01/11 05:06:51;;;;;;;43.70;28.35;;;;;;;3.62;73.64;101941.03;5053214;28;20060;-65
2021/01/11 05:09:18;;;;;;;39.75;27.05;;;;;;;3.82;73.25;101937.94;5051814;28;20053;-63
2021/01/11 05:11:44;;;;;;;42.08;27.25;;;;;;;3.93;72.41;101943.34;5053194;28;20053;-63
2021/01/11 05:14:17;;;;;;;40.30;26.63;;;;;;;3.88;72.41;101942.41;5052694;28;20056;-64
2021/01/11 05:17:03;;;;;;;39.05;26.42;;;;;;;4.10;72.21;101938.81;5052214;28;20213;-62
2021/01/11 05:19:30;;;;;;;37.30;23.75;;;;;;;4.05;71.85;101944.16;5052744;28;20049;-63
2021/01/11 05:21:58;;;;;;;37.45;24.50;;;;;;;4.03;71.69;101943.56;5058603;28;20048;-62
2021/01/11 05:24:36;;;;;;;36.95;24.17;;;;;;;4.00;71.51;101941.31;5072426;28;20605;-63
2021/01/11 05:27:07;;;;;;;37.13;24.48;;;;;;;3.81;72.03;101939.81;5069553;28;20075;-64
2021/01/11 05:29:36;;;;;;;36.65;24.67;;;;;;;4.06;71.71;101934.88;5051416;28;20052;-63
2021/01/11 05:32:08;;;;;;;41.40;25.23;;;;;;;4.10;71.58;101940.69;5052184;28;20049;-63
2021/01/11 05:34:52;;;;;;;39.70;26.05;;;;;;;3.93;71.90;101937.91;5052877;28;20072;-62
2021/01/11 05:37:35;;;;;;;37.50;24.75;;;;;;;4.13;71.39;101937.50;5073503;28;20048;-61
2021/01/11 05:40:11;;;;;;;36.45;24.75;;;;;;;4.10;71.31;101927.91;5069158;28;20056;-63
2021/01/11 05:42:39;;;;;;;36.97;24.55;;;;;;;4.14;71.29;101929.09;5052233;28;20049;-62
2021/01/11 05:45:13;;;;;;;36.83;24.70;;;;;;;4.16;70.90;101934.28;5063403;28;20538;-62
2021/01/11 05:48:05;;;;;;;40.75;26.02;;;;;;;3.80;72.26;101926.44;5071871;28;20482;-61
2021/01/11 05:50:46;;;;;;;43.08;26.33;;;;;;;3.73;72.57;101929.25;5066708;28;20060;-61
2021/01/11 05:53:17;;;;;;;37.80;25.17;;;;;;;3.95;72.14;101932.19;5052224;28;20056;-61
2021/01/11 05:55:48;;;;;;;37.72;24.90;;;;;;;3.90;71.85;101934.81;5052121;28;20049;-63
2021/01/11 05:58:18;;;;;;;43.50;25.58;;;;;;;3.79;71.88;101927.50;5052032;28;20092;-61
2021/01/11 06:00:45;;;;;;;39.70;26.42;;;;;;;3.83;72.20;101926.78;5051606;28;20056;-63
2021/01/11 06:03:13;;;;;;;41.60;25.48;;;;;;;4.00;72.22;101938.59;5069649;28;20095;-63
2021/01/11 06:05:41;;;;;;;40.17;24.27;;;;;;;4.09;71.46;101939.88;5072171;28;20056;-62
2021/01/11 06:08:11;;;;;;;39.15;24.35;;;;;;;4.09;71.19;101937.16;5072080;28;20048;-62
2021/01/11 06:10:40;;;;;;;38.55;25.02;;;;;;;3.79;72.03;101930.22;5071826;28;20064;-64
2021/01/11 06:13:08;;;;;;;44.38;25.33;;;;;;;3.73;72.98;101928.47;5063331;28;20045;-63
2021/01/11 06:15:39;;;;;;;37.95;25.30;;;;;;;4.02;72.17;101932.91;5052125;28;20056;-65
2021/01/11 06:18:09;;;;;;;37.95;23.77;;;;;;;4.05;71.83;101938.69;5055425;28;20056;-64
2021/01/11 06:20:42;;;;;;;37.30;23.23;;;;;;;3.86;72.35;101934.47;5075815;28;20053;-63
2021/01/11 06:23:11;;;;;;;40.17;23.58;;;;;;;4.03;71.97;101940.00;5067100;28;20072;-62
2021/01/11 06:25:39;;;;;;;37.05;24.60;;;;;;;3.95;72.66;101949.41;5056977;28;20049;-62
2021/01/11 06:28:10;;;;;;;39.97;24.58;;;;;;;3.99;72.56;101950.56;5056505;28;20122;-62
2021/01/11 06:30:42;;;;;;;39.38;24.17;;;;;;;3.78;73.17;101945.75;5055401;28;20041;-63
2021/01/11 06:33:12;;;;;;;34.55;23.02;;;;;;;4.07;72.54;101933.00;5055326;28;20060;-62
2021/01/11 06:35:42;;;;;;;35.38;23.25;;;;;;;4.25;71.40;101928.19;5056860;28;20056;-63
2021/01/11 06:38:11;;;;;;;34.35;22.70;;;;;;;4.16;71.62;101921.50;5056571;28;20057;-61
2021/01/11 06:40:38;;;;;;;34.33;22.73;;;;;;;4.31;71.02;101913.59;5054866;28;20447;-62
2021/01/11 06:43:05;;;;;;;35.75;23.27;;;;;;;4.15;71.90;101911.63;5064785;28;20041;-62
2021/01/11 06:45:40;;;;;;;38.00;23.00;;;;;;;4.18;72.23;101911.19;5062196;28;20044;-64
2021/01/11 06:48:08;;;;;;;33.20;21.67;;;;;;;4.05;72.12;101910.59;5074319;28;20044;-63
2021/01/11 06:50:35;;;;;;;35.30;21.40;;;;;;;4.13;72.20;101907.53;5072086;28;20047;-62
2021/01/11 06:53:03;;;;;;;32.65;20.48;;;;;;;4.21;71.85;101907.13;5069724;28;20045;-65
2021/01/11 06:55:30;;;;;;;34.97;22.45;;;;;;;3.97;73.12;101913.72;5073121;28;20052;-62
2021/01/11 06:57:59;;;;;;;30.42;20.17;;;;;;;4.28;72.48;101900.47;5070955;28;20393;-62
2021/01/11 07:00:41;;;;;;;30.20;20.15;;;;;;;4.36;71.76;101900.06;5073710;28;20064;-63
2021/01/11 07:03:08;;;;;;;33.15;21.63;;;;;;;4.26;71.83;101912.66;5067669;28;20048;-63
2021/01/11 07:05:37;;;;;;;30.98;19.85;;;;;;;4.10;72.66;101902.53;5073557;28;20491;-62
2021/01/11 07:08:09;;;;;;;33.38;21.02;;;;;;;4.14;72.62;101909.16;5073731;28;20111;-63
2021/01/11 07:10:40;;;;;;;33.78;19.50;;;;;;;4.11;72.96;101910.50;5070206;28;20056;-61
2021/01/11 07:13:19;;;;;;;37.92;20.25;;;;;;;4.24;72.85;101912.91;5095684;28;20052;-63
2021/01/11 07:15:51;;;;;;;36.65;20.40;;;;;;;4.28;72.68;101905.91;5094940;28;20487;-62
2021/01/11 07:18:37;;;;;;;36.17;20.13;;;;;;;4.19;72.63;101911.97;5092474;28;20055;-62
2021/01/11 07:21:18;;;;;;;29.20;19.35;;;;;;;4.45;72.09;101914.97;5054347;28;20052;-63
2021/01/11 07:23:46;;;;;;;32.70;19.63;;;;;;;4.28;72.22;101916.81;5054664;28;20049;-63
2021/01/11 07:26:21;;;;;;;31.40;20.15;;;;;;;4.62;71.60;101925.09;5055177;28;20307;-64
2021/01/11 07:29:02;;;;;;;35.83;21.65;;;;;;;4.26;72.55;101921.69;5054273;28;20049;-63
2021/01/11 07:31:34;;;;;;;31.52;21.45;;;;;;;4.62;71.98;101919.66;5053038;28;20052;-62
2021/01/11 07:34:09;;;;;;;33.60;21.42;;;;;;;4.75;71.26;101919.31;5054858;28;20049;-64
2021/01/11 07:36:39;;;;;;;32.90;21.40;;;;;;;4.47;71.67;101915.56;5054688;28;20049;-65
2021/01/11 07:39:18;;;;;;;35.22;21.02;;;;;;;4.49;71.70;101923.50;5054501;28;20045;-64
2021/01/11 07:41:50;;;;;;;36.13;24.60;;;;;;;4.42;72.07;101920.94;5066739;28;20051;-63
2021/01/11 07:44:21;;;;;;;38.88;23.55;;;;;;;4.46;72.00;101926.72;5072269;28;20395;-62
2021/01/11 07:47:00;;;;;;;38.42;23.67;;;;;;;4.63;71.48;101929.47;5074381;28;20056;-63
2021/01/11 07:49:29;;;;;;;39.78;26.83;;;;;;;4.66;70.92;101927.09;5074325;28;20060;-63
2021/01/11 07:52:14;;;;;;;49.55;32.45;;;;;;;4.55;71.36;101926.06;5065830;28;20492;-63
2021/01/11 07:54:41;;;;;;;38.63;24.92;;;;;;;4.60;71.65;101930.81;5058481;28;20049;-64
2021/01/11 07:57:10;;;;;;;41.38;26.25;;;;;;;4.63;71.33;101930.31;5062753;28;20056;-66
2021/01/11 07:59:37;;;;;;;37.97;25.13;;;;;;;4.68;71.46;101932.28;5063857;28;20041;-64
2021/01/11 08:02:09;;;;;;;38.72;25.17;;;;;;;4.56;71.49;101927.75;5063082;28;20412;-66
2021/01/11 08:04:37;;;;;;;38.53;25.52;;;;;;;4.62;71.62;101933.28;5057606;28;20052;-66
2021/01/11 08:07:08;;;;;;;39.90;25.25;;;;;;;4.91;71.16;101943.09;5060915;28;20048;-65
2021/01/11 08:09:36;;;;;;;42.92;25.92;;;;;;;4.89;70.38;101937.88;5063436;28;20053;-63
2021/01/11 08:12:11;;;;;;;44.50;26.08;;;;;;;4.84;70.54;101940.53;5074533;28;20060;-63
2021/01/11 08:14:39;;;;;;;43.75;23.92;;;;;;;4.83;71.11;101938.06;5052923;28;20065;-66
2021/01/11 08:17:13;;;;;;;45.83;25.67;;;;;;;4.64;71.79;101942.06;5053469;28;20491;-64
2021/01/11 08:19:43;;;;;;;42.00;25.40;;;;;;;4.84;71.54;101943.25;5054016;28;20068;-61
2021/01/11 08:22:10;;;;;;;43.50;25.25;;;;;;;4.97;70.67;101937.47;5056758;28;20057;-64
2021/01/11 08:24:37;;;;;;;43.45;25.38;;;;;;;4.96;70.85;101935.84;5054912;28;20052;-65
2021/01/11 08:27:07;;;;;;;37.13;24.58;;;;;;;5.17;70.48;101940.56;5061482;28;20055;-63
2021/01/11 08:29:37;;;;;;;;;;;;;;;5.27;70.05;101940.72;5072068;28;20052;-64
2021/01/11 08:32:05;;;;;;;;;;;;;;;5.35;70.02;101936.75;5070120;28;20312;-65
2021/01/11 08:34:34;;;;;;;42.38;23.45;;;;;;;5.50;69.65;101937.81;5088969;28;19921;-65
2021/01/11 08:37:01;;;;;;;37.45;24.30;;;;;;;5.58;69.19;101947.47;5053503;28;20487;-62
2021/01/11 08:39:27;;;;;;;37.55;22.75;;;;;;;5.60;69.02;101945.31;5069979;28;20048;-61
2021/01/11 08:41:55;;;;;;;37.78;23.13;;;;;;;5.57;69.50;101946.66;5064314;28;20044;-62
2021/01/11 08:44:26;;;;;;;34.38;22.65;;;;;;;5.49;68.97;101957.19;5075991;28;20044;-62
2021/01/11 08:46:55;;;;;;;35.97;21.08;;;;;;;5.57;69.12;101960.34;5064276;28;20418;-61
2021/01/11 08:49:23;;;;;;;34.03;21.17;;;;;;;5.84;68.02;101959.66;5067905;28;20041;-62
2021/01/11 08:51:50;;;;;;;38.22;22.90;;;;;;;5.55;68.51;101958.91;5058909;28;21501;-61
2021/01/11 08:54:31;;;;;;;41.42;23.95;;;;;;;5.56;68.61;101955.94;5069550;28;20048;-61
2021/01/11 08:56:59;;;;;;;38.00;22.38;;;;;;;5.49;69.22;101954.47;5062386;28;20060;-62
2021/01/11 08:59:26;;;;;;;39.63;24.20;;;;;;;5.47;68.92;101959.34;5056752;28;20045;-62
2021/01/11 09:01:53;;;;;;;30.10;18.13;;;;;;;5.47;69.09;101970.28;5054608;28;20405;-61
2021/01/11 09:04:49;;;;;;;28.75;17.85;;;;;;;5.97;68.02;101964.75;5058357;28;20075;-63
2021/01/11 09:07:25;;;;;;;28.92;15.70;;;;;;;5.70;67.67;101968.16;5041599;28;20495;-62
2021/01/11 09:09:52;;;;;;;25.75;15.13;;;;;;;5.86;67.67;101962.97;5037669;28;20392;-62
2021/01/11 09:12:28;;;;;;;23.70;14.77;;;;;;;6.06;67.18;101969.53;5040507;28;20061;-63
2021/01/11 09:14:55;;;;;;;20.92;13.50;;;;;;;5.82;67.11;101961.78;5040010;28;20063;-62
2021/01/11 09:17:26;;;;;;;24.20;14.68;;;;;;;5.70;67.24;101961.91;5038395;28;20052;-65
2021/01/11 09:20:03;;;;;;;23.48;13.82;;;;;;;5.49;68.10;101962.66;5022324;28;20052;-61
2021/01/11 09:22:36;;;;;;;22.85;13.95;;;;;;;5.59;67.88;101963.66;5042635;28;20139;-62
2021/01/11 09:25:10;;;;;;;23.58;13.57;;;;;;;5.72;67.63;101966.03;5039496;28;20420;-62
2021/01/11 09:27:39;;;;;;;18.67;12.57;;;;;;;5.65;67.74;101962.63;5040772;28;20045;-64
2021/01/11 09:30:08;;;;;;;19.58;12.07;;;;;;;5.50;67.71;101967.88;5035650;28;20049;-62
2021/01/11 09:32:35;;;;;;;18.60;12.45;;;;;;;5.71;67.63;101963.53;5042831;28;20040;-62
2021/01/11 09:35:05;;;;;;;17.67;11.73;;;;;;;5.79;67.61;101965.03;5040990;28;20064;-62
2021/01/11 09:37:32;;;;;;;22.35;12.68;;;;;;;5.93;67.44;101969.09;5036060;28;20049;-62
2021/01/11 09:40:01;;;;;;;23.93;12.03;;;;;;;6.06;66.52;101955.03;5061366;28;20053;-63
2021/01/11 09:42:30;;;;;;;18.08;11.43;;;;;;;6.04;66.76;101962.66;5032621;28;20053;-60
2021/01/11 09:45:00;;;;;;;27.35;11.60;;;;;;;5.83;66.82;101967.03;5067332;28;20419;-63
2021/01/11 09:47:27;;;;;;;32.65;17.35;;;;;;;5.78;67.29;101966.09;5067980;28;20051;-61
2021/01/11 09:49:55;;;;;;;26.13;13.35;;;;;;;5.83;67.14;101961.56;5068824;28;20047;-62
2021/01/11 09:52:23;;;;;;;27.85;14.77;;;;;;;5.91;66.80;101963.84;5074515;28;20056;-60
2021/01/11 09:54:49;;;;;;;25.20;12.55;;;;;;;6.10;66.44;101958.94;5078819;28;20384;-60
2021/01/11 09:57:16;;;;;;;20.75;10.30;;;;;;;5.94;67.07;101959.78;5069013;28;20062;-64
2021/01/11 09:59:43;;;;;;;15.93;9.68;;;;;;;5.95;66.47;101956.81;5070867;28;20168;-63
2021/01/11 10:02:10;;;;;;;15.18;10.98;;;;;;;5.92;66.69;101962.78;5072762;28;20051;-60
2021/01/11 10:04:37;;;;;;;16.13;10.52;;;;;;;5.90;67.13;101959.47;5075644;28;20051;-63
2021/01/11 10:07:06;;;;;;;24.20;12.30;;;;;;;6.01;66.98;101955.81;5059724;28;20048;-63
2021/01/11 10:09:40;;;;;;;17.10;11.52;;;;;;;5.84;67.12;101959.66;5073716;28;20060;-61
2021/01/11 10:12:07;;;;;;;18.25;11.23;;;;;;;5.85;67.20;101956.66;5073049;27;20052;-63
2021/01/11 10:14:34;;;;;;;27.42;17.52;;;;;;;6.02;67.12;101951.97;5071973;28;20048;-63
2021/01/11 10:17:06;;;;;;;22.98;11.18;;;;;;;6.12;66.85;101957.56;5069307;28;20395;-62
2021/01/11 10:19:34;;;;;;;16.58;10.68;;;;;;;6.18;66.50;101953.84;5073023;28;20048;-62
2021/01/11 10:22:04;;;;;;;18.88;11.63;;;;;;;6.13;66.63;101953.78;5069359;28;20072;-63
2021/01/11 10:24:37;;;;;;;17.58;11.65;;;;;;;6.15;66.25;101954.34;5066412;28;20041;-62
2021/01/11 10:27:04;;;;;;;23.05;11.57;;;;;;;5.99;66.77;101952.50;5067656;28;20052;-63
2021/01/11 10:29:32;;;;;;;22.42;11.13;;;;;;;6.12;66.59;101952.09;5067702;28;20052;-62
2021/01/11 10:31:59;;;;;;;36.38;11.68;;;;;;;6.18;66.23;101951.09;5064499;28;20052;-61
2021/01/11 10:34:29;;;;;;;26.42;11.43;;;;;;;6.15;66.22;101948.88;5067041;28;20044;-62
2021/01/11 10:36:58;;;;;;;23.90;10.93;;;;;;;6.09;66.55;101957.25;5056359;28;20052;-62
2021/01/11 10:39:27;;;;;;;24.38;13.88;;;;;;;6.27;65.48;101951.47;5076334;28;20051;-61
2021/01/11 10:41:55;;;;;;;28.08;18.25;;;;;;;6.13;66.09;101951.03;5061824;28;20051;-63
2021/01/11 10:44:26;;;;;;;16.02;9.95;;;;;;;5.95;66.54;101945.03;5069947;28;20048;-61
2021/01/11 10:46:54;;;;;;;14.10;10.15;;;;;;;6.13;65.95;101945.56;5060891;28;20045;-60
2021/01/11 10:49:21;;;;;;;21.05;10.90;;;;;;;6.03;65.86;101950.09;5064050;28;20046;-61
2021/01/11 10:51:51;;;;;;;18.08;10.85;;;;;;;6.37;65.22;101944.22;5069563;28;20055;-63
2021/01/11 10:54:21;;;;;;;15.90;10.65;;;;;;;6.12;65.69;101940.38;5059848;28;20049;-62
2021/01/11 10:56:52;;;;;;;13.95;9.82;;;;;;;6.08;65.90;101934.56;5069581;28;20053;-62
2021/01/11 10:59:19;;;;;;;16.63;10.23;;;;;;;6.16;65.71;101938.75;5069316;28;20400;-62
2021/01/11 11:01:50;;;;;;;19.33;11.05;;;;;;;5.87;66.59;101932.66;5072251;28;20033;-61
2021/01/11 11:04:23;;;;;;;18.95;10.93;;;;;;;5.94;66.24;101926.97;5070284;28;20049;-67
2021/01/11 11:06:57;;;;;;;17.15;11.45;;;;;;;5.92;66.69;101938.19;5060606;28;20059;-63
2021/01/11 11:09:23;;;;;;;15.02;11.15;;;;;;;5.97;66.16;101926.47;5058058;28;20059;-64
2021/01/11 11:11:52;;;;;;;17.95;12.27;;;;;;;6.06;66.16;101927.69;5070545;28;20041;-64
2021/01/11 11:14:24;;;;;;;17.27;11.95;;;;;;;6.00;66.21;101924.06;5056903;28;20047;-63
2021/01/11 11:16:57;;;;;;;18.98;12.32;;;;;;;6.19;65.95;101911.72;5059595;28;20068;-62
2021/01/11 11:19:24;;;;;;;17.38;12.00;;;;;;;6.06;65.74;101914.84;5066493;28;20040;-63
2021/01/11 11:21:51;;;;;;;18.42;12.43;;;;;;;6.06;65.93;101914.00;5068558;28;20523;-64
2021/01/11 11:24:18;;;;;;;16.00;12.10;;;;;;;6.08;66.41;101906.38;5054416;28;20135;-64
2021/01/11 11:26:45;;;;;;;18.58;13.27;;;;;;;6.08;66.19;101911.84;5066799;28;20041;-63
2021/01/11 11:29:15;;;;;;;16.95;12.02;;;;;;;6.17;66.30;101902.94;5056019;28;20053;-63
2021/01/11 11:31:42;;;;;;;22.13;14.52;;;;;;;6.11;66.41;101900.41;5068687;28;20044;-62